createdAt,value
2017-05-03T00:01:27.867Z,70.30
2017-05-03T00:03:54.819Z,70.40
2017-05-03T00:06:21.796Z,70.50
2017-05-03T00:08:48.742Z,70.50
2017-05-03T00:11:15.717Z,70.60
2017-05-03T00:13:43.034Z,70.70
2017-05-03T00:16:10.763Z,70.80
2017-05-03T00:18:37.714Z,71.00
2017-05-03T00:21:04.700Z,71.20
2017-05-03T00:23:31.642Z,71.60
2017-05-03T00:25:58.601Z,71.40
2017-05-03T00:28:25.621Z,71.30
2017-05-03T00:30:52.710Z,71.40
2017-05-03T00:33:19.670Z,71.50
2017-05-03T00:35:46.638Z,71.40
2017-05-03T00:38:13.579Z,71.30
2017-05-03T00:40:40.559Z,71.40
2017-05-03T00:43:11.757Z,71.50
2017-05-03T00:45:38.727Z,71.60
2017-05-03T00:48:06.417Z,71.70
2017-05-03T00:50:33.380Z,71.70
2017-05-03T00:53:00.355Z,71.70
2017-05-03T00:55:27.422Z,71.70
2017-05-03T00:57:55.134Z,71.90
2017-05-03T01:00:22.134Z,72.00
2017-05-03T01:02:49.846Z,72.00
2017-05-03T01:05:18.507Z,71.90
2017-05-03T01:07:45.476Z,72.00
2017-05-03T01:10:12.898Z,72.00
2017-05-03T01:12:39.902Z,71.90
2017-05-03T01:15:06.893Z,72.00
2017-05-03T01:17:33.904Z,72.00
2017-05-03T01:20:00.906Z,71.90
2017-05-03T01:22:27.842Z,71.90
2017-05-03T01:24:54.828Z,71.90
2017-05-03T01:27:21.795Z,71.90
2017-05-03T01:29:49.477Z,71.90
2017-05-03T01:32:16.472Z,72.10
2017-05-03T01:34:43.453Z,72.10
2017-05-03T01:37:11.170Z,72.00
2017-05-03T01:39:38.453Z,71.90
2017-05-03T01:42:05.476Z,71.90
2017-05-03T01:44:32.485Z,71.90
2017-05-03T01:46:59.506Z,71.70
2017-05-03T01:49:27.345Z,71.80
2017-05-03T01:51:54.334Z,72.00
2017-05-03T01:54:22.135Z,72.40
2017-05-03T01:56:49.151Z,72.20
2017-05-03T01:59:16.217Z,72.30
2017-05-03T02:01:43.234Z,72.30
2017-05-03T02:04:10.266Z,71.90
2017-05-03T02:06:37.958Z,72.20
2017-05-03T02:09:04.947Z,71.90
2017-05-03T02:11:31.930Z,71.50
2017-05-03T02:13:58.999Z,71.40
2017-05-03T02:16:26.092Z,71.20
2017-05-03T02:18:53.054Z,71.00
2017-05-03T02:21:20.746Z,71.00
2017-05-03T02:23:47.731Z,70.90
2017-05-03T02:26:14.686Z,71.60
2017-05-03T02:28:41.653Z,70.80
2017-05-03T02:31:09.326Z,70.80
2017-05-03T02:33:36.300Z,70.80
2017-05-03T02:36:03.291Z,70.70
2017-05-03T02:38:30.224Z,70.60
2017-05-03T02:40:57.265Z,70.70
2017-05-03T02:43:24.208Z,70.60
2017-05-03T02:45:51.171Z,70.70
2017-05-03T02:48:18.938Z,70.70
2017-05-03T02:50:46.683Z,70.70
2017-05-03T02:53:13.725Z,70.80
2017-05-03T02:55:40.701Z,70.70
2017-05-03T02:58:08.423Z,71.50
2017-05-03T03:00:35.425Z,70.70
2017-05-03T03:03:02.406Z,70.70
2017-05-03T03:05:29.406Z,70.80
2017-05-03T03:07:56.422Z,70.80
2017-05-03T03:10:23.500Z,70.80
2017-05-03T03:12:50.572Z,70.80
2017-05-03T03:15:17.914Z,70.70
2017-05-03T03:17:44.904Z,70.70
2017-05-03T03:20:11.857Z,70.70
2017-05-03T03:22:38.821Z,70.70
2017-05-03T03:25:06.642Z,70.50
2017-05-03T03:27:33.626Z,70.60
2017-05-03T03:30:01.341Z,70.50
2017-05-03T03:32:28.347Z,70.50
2017-05-03T03:34:55.311Z,70.50
2017-05-03T03:37:22.282Z,70.60
2017-05-03T03:39:49.207Z,70.20
2017-05-03T03:42:16.189Z,70.20
2017-05-03T03:44:43.192Z,70.10
2017-05-03T03:47:10.145Z,70.20
2017-05-03T03:49:37.106Z,70.20
2017-05-03T03:52:04.898Z,70.30
2017-05-03T03:54:32.032Z,70.80
2017-05-03T03:56:59.037Z,70.40
2017-05-03T03:59:26.077Z,70.50
2017-05-03T04:01:53.075Z,70.40
2017-05-03T04:04:20.032Z,70.30
2017-05-03T04:06:47.048Z,70.30
2017-05-03T04:09:14.051Z,70.20
2017-05-03T04:11:41.080Z,70.10
2017-05-03T04:14:08.881Z,70.00
2017-05-03T04:16:35.878Z,69.90
2017-05-03T04:19:03.927Z,69.80
2017-05-03T04:21:30.903Z,69.80
2017-05-03T04:23:57.910Z,69.80
2017-05-03T04:26:24.903Z,69.80
2017-05-03T04:28:52.609Z,69.80
2017-05-03T04:31:19.562Z,69.80
2017-05-03T04:33:46.551Z,69.90
2017-05-03T04:36:13.546Z,69.70
2017-05-03T04:38:40.498Z,69.80
2017-05-03T04:41:07.438Z,69.80
2017-05-03T04:43:34.447Z,69.60
2017-05-03T04:46:01.419Z,69.70
2017-05-03T04:48:28.376Z,69.50
2017-05-03T04:50:55.387Z,69.50
2017-05-03T04:53:22.326Z,69.60
2017-05-03T04:55:49.298Z,70.50
2017-05-03T04:58:16.292Z,69.80
2017-05-03T05:00:44.140Z,66.40
2017-05-03T05:03:11.413Z,63.30
2017-05-03T05:05:39.143Z,64.40
2017-05-03T05:08:06.097Z,65.30
2017-05-03T05:10:33.045Z,57.30
2017-05-03T05:13:00.014Z,53.50
2017-05-03T05:15:27.761Z,54.80
2017-05-03T05:17:55.495Z,54.60
2017-05-03T05:20:22.494Z,54.10
2017-05-03T05:22:49.508Z,53.40
2017-05-03T05:25:16.515Z,52.30
2017-05-03T05:27:43.606Z,52.10
2017-05-03T05:30:10.602Z,48.30
2017-05-03T05:32:37.597Z,47.00
2017-05-03T05:35:05.343Z,48.70
2017-05-03T05:37:32.326Z,45.20
2017-05-03T05:39:59.369Z,46.50
2017-05-03T05:42:26.436Z,45.40
2017-05-03T05:50:48.047Z,44.60
2017-05-03T05:53:15.170Z,44.10
2017-05-03T05:55:42.376Z,44.10
2017-05-03T05:58:09.698Z,42.80
2017-05-03T06:00:37.561Z,40.70
2017-05-03T06:03:04.802Z,40.30
2017-05-03T06:05:32.149Z,41.10
2017-05-03T06:08:01.240Z,40.70
2017-05-03T06:10:29.629Z,39.30
2017-05-03T06:15:53.107Z,38.80
2017-05-03T06:18:21.616Z,39.10
2017-05-03T06:53:14.815Z,31.70
2017-05-03T06:55:42.297Z,30.80
2017-05-03T07:01:10.999Z,27.20
2017-05-03T07:06:52.756Z,27.40
2017-05-03T07:09:24.618Z,28.00
2017-05-03T07:38:31.526Z,26.40
2017-05-03T07:44:50.119Z,26.50
2017-05-03T08:19:46.601Z,23.30
2017-05-03T08:45:36.182Z,26.20
2017-05-03T09:05:34.059Z,29.00
2017-05-03T09:08:02.457Z,29.10
2017-05-03T09:10:29.508Z,29.10
2017-05-03T09:12:57.249Z,29.10
2017-05-03T09:15:24.276Z,28.10
2017-05-03T09:17:55.760Z,27.90
2017-05-03T09:20:23.868Z,28.30
2017-05-03T09:22:50.870Z,28.20
2017-05-03T09:34:07.217Z,29.10
2017-05-03T09:36:44.911Z,29.80
2017-05-03T09:39:16.471Z,28.80
2017-05-03T09:41:43.776Z,28.80
2017-05-03T09:44:14.316Z,29.30
2017-05-03T09:46:44.842Z,29.30
2017-05-03T09:49:18.778Z,29.70
2017-05-03T09:51:56.295Z,29.30
2017-05-03T09:54:25.601Z,28.60
2017-05-03T09:56:52.763Z,28.90
2017-05-03T09:59:21.255Z,29.70
2017-05-03T10:04:40.836Z,30.10
2017-05-03T10:07:12.713Z,30.50
2017-05-03T10:12:37.550Z,31.00
2017-05-03T10:31:28.973Z,31.00
2017-05-03T10:34:01.710Z,31.20
2017-05-03T10:36:31.963Z,31.60
2017-05-03T10:38:59.717Z,32.20
2017-05-03T10:41:28.072Z,32.50
2017-05-03T10:49:14.679Z,32.50
2017-05-03T10:51:46.221Z,32.60
2017-05-03T10:54:14.725Z,32.60
2017-05-03T10:56:42.365Z,32.60
2017-05-03T10:59:15.785Z,32.70
2017-05-03T11:01:46.108Z,32.80
2017-05-03T11:04:16.966Z,33.00
2017-05-03T11:09:21.555Z,33.10
2017-05-03T11:11:48.747Z,32.90
2017-05-03T11:14:16.859Z,33.50
2017-05-03T11:16:50.898Z,33.20
2017-05-03T11:19:20.222Z,33.20
2017-05-03T11:21:52.437Z,33.30
2017-05-03T11:24:20.212Z,33.70
2017-05-03T11:26:47.546Z,33.10
2017-05-03T11:29:20.183Z,33.40
2017-05-03T11:31:47.391Z,33.50
2017-05-03T11:36:53.623Z,33.60
2017-05-03T11:39:25.238Z,33.40
2017-05-03T11:41:52.678Z,33.80
2017-05-03T11:44:19.807Z,33.90
2017-05-03T11:46:54.032Z,33.40
2017-05-03T11:49:21.338Z,33.90
2017-05-03T11:51:48.524Z,34.40
2017-05-03T11:54:15.615Z,33.90
2017-05-03T11:56:43.210Z,34.10
2017-05-03T11:59:10.947Z,34.20
2017-05-03T12:01:41.095Z,34.30
2017-05-03T12:04:08.182Z,33.70
2017-05-03T12:06:35.200Z,33.90
2017-05-03T12:09:02.390Z,33.50
2017-05-03T12:11:29.559Z,34.10
2017-05-03T12:13:56.645Z,34.10
2017-05-03T12:16:24.705Z,34.30
2017-05-03T12:18:51.818Z,34.50
2017-05-03T12:21:23.469Z,34.70
2017-05-03T12:23:51.252Z,35.10
2017-05-03T12:26:19.252Z,35.30
2017-05-03T12:28:46.302Z,35.70
2017-05-03T12:31:17.319Z,35.80
2017-05-03T12:33:44.523Z,36.10
2017-05-03T12:36:11.667Z,36.20
2017-05-03T12:38:38.649Z,36.90
2017-05-03T12:41:05.690Z,36.00
2017-05-03T12:43:33.413Z,36.00
2017-05-03T12:46:02.820Z,35.30
2017-05-03T12:48:30.849Z,35.20
2017-05-03T12:50:57.946Z,35.20
2017-05-03T12:53:24.983Z,35.50
2017-05-03T12:55:52.366Z,35.80
2017-05-03T12:58:19.605Z,36.30
2017-05-03T13:00:53.572Z,37.30
2017-05-03T13:03:20.929Z,37.60
2017-05-03T13:05:51.020Z,37.00
2017-05-03T13:08:18.152Z,37.40
2017-05-03T13:10:46.281Z,38.00
2017-05-03T13:13:14.230Z,37.40
2017-05-03T13:15:42.216Z,37.70
2017-05-03T13:18:14.373Z,38.40
2017-05-03T13:20:41.583Z,39.50
2017-05-03T13:23:08.754Z,39.40
2017-05-03T13:25:37.189Z,39.10
2017-05-03T13:28:04.396Z,39.20
2017-05-03T13:30:31.503Z,39.30
2017-05-03T13:32:58.557Z,36.90
2017-05-03T13:35:25.585Z,37.20
2017-05-03T13:37:52.673Z,37.80
2017-05-03T13:40:19.699Z,37.90
2017-05-03T13:42:46.719Z,38.20
2017-05-03T13:45:13.791Z,38.30
2017-05-03T13:47:41.660Z,37.80
2017-05-03T13:50:11.002Z,38.00
2017-05-03T13:52:38.340Z,39.40
2017-05-03T13:55:05.417Z,41.10
2017-05-03T13:57:32.388Z,41.20
2017-05-03T13:59:59.667Z,41.40
2017-05-03T14:02:26.676Z,41.70
2017-05-03T14:04:53.645Z,42.10
2017-05-03T14:07:20.728Z,42.70
2017-05-03T14:09:48.050Z,43.50
2017-05-03T14:12:15.248Z,43.90
2017-05-03T14:14:42.635Z,44.60
2017-05-03T14:17:10.106Z,45.00
2017-05-03T14:19:37.218Z,45.60
2017-05-03T14:22:05.775Z,45.70
2017-05-03T14:24:32.821Z,45.90
2017-05-03T14:26:59.789Z,46.00
2017-05-03T14:29:26.828Z,46.10
2017-05-03T14:31:53.859Z,46.10
2017-05-03T14:34:20.944Z,45.80
2017-05-03T14:36:47.963Z,45.70
2017-05-03T14:39:15.423Z,45.40
2017-05-03T14:41:42.459Z,45.30
2017-05-03T14:44:09.635Z,45.30
2017-05-03T14:46:36.605Z,45.10
2017-05-03T14:49:03.609Z,45.20
2017-05-03T14:51:30.628Z,45.40
2017-05-03T14:53:57.932Z,46.30
2017-05-03T14:56:26.132Z,46.10
2017-05-03T14:58:53.120Z,46.70
2017-05-03T15:01:20.136Z,46.40
2017-05-03T15:03:47.134Z,46.30
2017-05-03T15:06:14.093Z,46.30
2017-05-03T15:08:41.192Z,46.00
2017-05-03T15:11:08.223Z,45.90
2017-05-03T15:13:35.230Z,45.60
2017-05-03T15:16:02.314Z,45.70
2017-05-03T15:18:30.106Z,46.00
2017-05-03T15:20:57.107Z,46.00
2017-05-03T15:23:24.223Z,46.40
2017-05-03T15:25:52.929Z,46.30
2017-05-03T15:28:20.161Z,46.40
2017-05-03T15:30:48.177Z,46.40
2017-05-03T15:33:15.247Z,46.40
2017-05-03T15:35:42.306Z,46.30
2017-05-03T15:38:09.343Z,46.30
2017-05-03T15:40:37.246Z,46.50
2017-05-03T15:43:04.273Z,46.60
2017-05-03T15:45:31.248Z,46.60
2017-05-03T15:47:58.307Z,46.50
2017-05-03T15:50:25.340Z,46.60
2017-05-03T15:52:52.375Z,46.60
2017-05-03T15:55:19.363Z,46.60
2017-05-03T15:57:46.403Z,46.50
2017-05-03T16:00:27.280Z,46.50
2017-05-03T16:02:54.278Z,46.50
2017-05-03T16:05:21.332Z,46.30
2017-05-03T16:07:48.435Z,46.10
2017-05-03T16:10:16.569Z,45.80
2017-05-03T16:12:45.517Z,45.80
2017-05-03T16:15:13.753Z,45.70
2017-05-03T16:17:40.846Z,45.80
2017-05-03T16:25:17.818Z,45.90
2017-05-03T16:27:44.837Z,47.00
2017-05-03T16:30:14.699Z,47.40
2017-05-03T16:32:42.025Z,47.80
2017-05-03T16:35:14.792Z,47.60
2017-05-03T16:37:42.845Z,47.90
2017-05-03T16:40:10.062Z,47.90
2017-05-03T16:42:37.579Z,48.20
2017-05-03T16:45:04.714Z,48.50
2017-05-03T16:50:07.566Z,48.40
2017-05-03T16:52:34.831Z,48.20
2017-05-03T16:55:02.264Z,48.70
2017-05-03T16:57:31.416Z,49.30
2017-05-03T16:59:59.146Z,49.70
2017-05-03T17:02:26.376Z,50.20
2017-05-03T17:04:53.844Z,50.70
2017-05-03T17:07:21.164Z,50.80
2017-05-03T17:09:48.706Z,51.10
2017-05-03T17:12:22.053Z,50.90
2017-05-03T17:14:49.784Z,50.80
2017-05-03T17:17:16.793Z,50.90
2017-05-03T17:19:44.596Z,50.50
2017-05-03T17:22:11.866Z,50.50
2017-05-03T17:24:38.948Z,50.90
2017-05-03T17:27:06.106Z,51.20
2017-05-03T17:29:33.382Z,51.50
2017-05-03T17:32:00.656Z,51.90
2017-05-03T17:34:27.892Z,52.40
2017-05-03T17:36:55.092Z,52.90
2017-05-03T17:39:22.195Z,53.50
2017-05-03T17:41:49.269Z,54.00
2017-05-03T17:44:16.448Z,54.50
2017-05-03T17:46:43.631Z,55.30
2017-05-03T17:49:10.886Z,56.20
2017-05-03T17:51:39.336Z,56.90
2017-05-03T17:54:07.844Z,57.70
2017-05-03T17:56:35.925Z,58.20
2017-05-03T17:59:03.222Z,58.60
2017-05-03T18:01:30.443Z,59.10
2017-05-03T18:03:57.625Z,59.30
2017-05-03T18:06:29.537Z,59.50
2017-05-03T18:08:56.766Z,59.60
2017-05-03T18:11:24.466Z,59.80
2017-05-03T18:13:52.398Z,59.20
2017-05-03T18:16:19.522Z,59.10
2017-05-03T18:18:46.882Z,59.20
2017-05-03T18:21:13.920Z,59.20
2017-05-03T18:23:42.143Z,59.30
2017-05-03T18:26:09.337Z,59.70
2017-05-03T18:28:38.117Z,59.70
2017-05-03T18:31:07.989Z,60.10
2017-05-03T18:33:36.542Z,60.70
2017-05-03T18:36:07.068Z,60.60
2017-05-03T18:38:34.288Z,63.50
2017-05-03T18:41:06.775Z,64.30
2017-05-03T18:43:34.519Z,65.30
2017-05-03T18:46:02.454Z,66.00
2017-05-03T18:48:30.695Z,65.30
2017-05-03T18:50:59.098Z,66.90
2017-05-03T18:53:33.670Z,67.70
2017-05-03T18:56:05.230Z,68.20
2017-05-03T18:58:37.192Z,68.60
2017-05-03T19:01:05.645Z,68.90
2017-05-03T19:03:36.229Z,69.00
2017-05-03T19:06:16.820Z,69.20
2017-05-03T19:08:46.009Z,69.70
2017-05-03T19:11:14.818Z,69.80
2017-05-03T19:13:43.082Z,69.10
2017-05-03T19:16:11.216Z,68.60
2017-05-03T19:18:38.519Z,69.00
2017-05-03T19:21:06.700Z,68.70
2017-05-03T19:23:34.067Z,68.50
2017-05-03T19:26:02.676Z,69.10
2017-05-03T19:28:33.164Z,69.00
2017-05-03T19:31:09.168Z,68.70
2017-05-03T19:33:37.179Z,68.60
2017-05-03T19:36:07.815Z,68.60
2017-05-03T19:38:40.829Z,68.50
2017-05-03T19:41:14.181Z,68.20
2017-05-03T19:43:41.386Z,68.30
2017-05-03T19:46:10.556Z,68.30
2017-05-03T19:48:37.721Z,68.20
2017-05-03T19:51:08.667Z,68.10
2017-05-03T19:53:36.042Z,67.90
2017-05-03T19:56:03.635Z,68.20
2017-05-03T19:58:32.278Z,68.50
2017-05-03T20:01:02.451Z,68.40
2017-05-03T20:03:30.388Z,68.10
2017-05-03T20:05:57.604Z,67.90
2017-05-03T20:08:25.024Z,67.90
2017-05-03T20:10:52.111Z,67.90
2017-05-03T20:13:21.946Z,68.00
2017-05-03T20:15:49.147Z,68.60
2017-05-03T20:18:16.313Z,68.70
2017-05-03T20:20:45.666Z,68.60
2017-05-03T20:23:15.569Z,69.10
2017-05-03T20:25:43.015Z,69.40
2017-05-03T20:28:11.423Z,71.40
2017-05-03T20:30:38.424Z,71.40
2017-05-03T20:33:05.438Z,71.60
2017-05-03T20:35:32.409Z,71.50
2017-05-03T20:38:00.080Z,71.30
2017-05-03T20:40:28.263Z,71.50
2017-05-03T20:42:55.319Z,71.60
2017-05-03T20:45:24.709Z,71.50
2017-05-03T20:47:51.996Z,71.40
2017-05-03T20:50:20.387Z,71.50
2017-05-03T20:52:48.336Z,71.60
2017-05-03T20:55:15.580Z,71.70
2017-05-03T20:57:42.633Z,71.70
2017-05-03T21:00:10.883Z,71.70
2017-05-03T21:02:38.881Z,71.50
2017-05-03T21:05:06.211Z,71.40
2017-05-03T21:07:34.091Z,71.60
2017-05-03T21:10:01.573Z,71.70
2017-05-03T21:12:28.606Z,72.00
2017-05-03T21:14:55.816Z,72.20
2017-05-03T21:17:23.126Z,72.00
2017-05-03T21:19:50.247Z,72.00
2017-05-03T21:22:17.376Z,71.80
2017-05-03T21:24:45.300Z,71.90
2017-05-03T21:27:14.145Z,71.70
2017-05-03T21:29:41.536Z,71.60
2017-05-03T21:32:08.751Z,71.60
2017-05-03T21:34:35.765Z,71.40
2017-05-03T21:37:04.772Z,71.40
2017-05-03T21:39:31.790Z,71.40
2017-05-03T21:41:58.863Z,71.50
2017-05-03T21:44:26.030Z,71.60
2017-05-03T21:46:53.071Z,71.70
2017-05-03T21:49:20.251Z,71.60
2017-05-03T21:51:47.300Z,71.70
2017-05-03T21:54:14.383Z,71.80
2017-05-03T21:56:41.373Z,72.10
2017-05-03T21:59:08.794Z,72.10
2017-05-03T22:01:35.836Z,72.40
2017-05-03T22:04:02.803Z,74.50
2017-05-03T22:06:29.889Z,75.20
2017-05-03T22:08:57.096Z,75.70
2017-05-03T22:11:25.235Z,76.00
2017-05-03T22:13:53.157Z,75.20
2017-05-03T22:16:20.227Z,74.90
2017-05-03T22:18:47.391Z,74.60
2017-05-03T22:21:14.478Z,74.40
2017-05-03T22:23:42.454Z,74.10
2017-05-03T22:26:09.534Z,74.10
2017-05-03T22:28:36.891Z,74.10
2017-05-03T22:31:03.891Z,74.20
2017-05-03T22:33:31.088Z,74.30
2017-05-03T22:35:58.210Z,74.40
2017-05-03T22:38:25.386Z,74.60
2017-05-03T22:40:52.526Z,74.60
2017-05-03T22:43:19.748Z,74.60
2017-05-03T22:45:47.671Z,74.60
2017-05-03T22:48:14.672Z,74.90
2017-05-03T22:50:42.733Z,76.30
2017-05-03T22:53:09.798Z,75.70
2017-05-03T22:55:37.642Z,76.60
2017-05-03T22:58:04.960Z,76.10
2017-05-03T23:00:31.994Z,75.70
2017-05-03T23:02:59.220Z,75.40
2017-05-03T23:05:26.691Z,75.30
2017-05-03T23:07:53.682Z,75.00
2017-05-03T23:10:20.675Z,75.30
2017-05-03T23:12:47.935Z,75.90
2017-05-03T23:15:15.000Z,75.00
2017-05-03T23:17:42.150Z,74.80
2017-05-03T23:20:09.170Z,74.90
2017-05-03T23:22:36.308Z,75.10
2017-05-03T23:25:03.404Z,75.00
2017-05-03T23:27:30.438Z,75.10
2017-05-03T23:29:57.443Z,75.20
2017-05-03T23:32:24.527Z,75.10
2017-05-03T23:34:51.975Z,75.30
2017-05-03T23:37:18.983Z,75.30
2017-05-03T23:39:46.060Z,75.30
2017-05-03T23:42:13.145Z,75.50
2017-05-03T23:44:40.172Z,77.40
2017-05-03T23:47:07.227Z,78.00
2017-05-03T23:49:34.281Z,77.30
2017-05-03T23:52:01.407Z,76.90
2017-05-03T23:54:29.374Z,76.70
2017-05-03T23:56:56.683Z,76.50
2017-05-03T23:59:23.920Z,76.40
